Stations météo

réclame
Mon MeteoGroup
Nimes/Courbessac, France (7645): Température de l'air & dewpoint: 18.01.2018 12:00:00 - 24.01.2018 12:00:00 (CET)Nimes/Courbessac, France (7645): Température de l'air 5cm: 18.01.2018 12:00:00 - 24.01.2018 12:00:00 (CET)Nimes/Courbessac, France (7645): Température de l'air -20cm: 18.01.2018 12:00:00 - 24.01.2018 12:00:00 (CET)Nimes/Courbessac, France (7645): Vitesse du vent & gusts: 18.01.2018 12:00:00 - 24.01.2018 12:00:00 (CET)Nimes/Courbessac, France (7645): Direction du vent: 18.01.2018 12:00:00 - 24.01.2018 12:00:00 (CET)Nimes/Courbessac, France (7645): reduced air pressure: 18.01.2018 12:00:00 - 24.01.2018 12:00:00 (CET)Nimes/Courbessac, France (7645): Ensoleillement: 18.01.2018 12:00:00 - 24.01.2018 12:00:00 (CET)Nimes/Courbessac, France (7645): Quantités de précipitations: 18.01.2018 12:00:00 - 24.01.2018 12:00:00 (CET)
Date & Time tt [°C] td [°C] tt 5cm [°C] tt -20cm [°C] ff [km/h] ff [knt] fx [km/h] fx [knt] dd ppp [hPa] sd [min] rr [mm]
24.01.2018 12:00:00 11,5 7,6 11,5 8,8 3 2 10 5 E 1029,9 0 0,0
24.01.2018 11:00:00 11,2 7,5 11,5 8,8 4 2 10 5 E 1030,2 0 0,0
24.01.2018 10:00:00 9,7 6,0 7,6 8,9 3 1 7 4 N 1029,6 3 0,0
24.01.2018 09:00:00 7,1 4,7 5,1 8,9 3 2 10 6 N 1029,3 0 0,0
24.01.2018 08:00:00 5,1 3,8 2,4 9,0 9 5 11 6 NNW 1029,0 0 0,0
24.01.2018 07:00:00 4,8 3,3 1,8 9,1 4 2 8 4 NNW 1028,5 0 0,0
24.01.2018 06:00:00 5,8 4,0 2,1 9,2 6 3 9 5 NW 1027,8 0 0,0
24.01.2018 05:00:00 6,5 3,6 2,9 9,2 5 3 17 9 NE 1027,5 0 0,0
24.01.2018 04:00:00 9,3 4,9 6,2 9,3 10 5 21 11 N 1027,5 0 0,0
24.01.2018 03:00:00 9,4 4,4 6,7 9,4 4 2 18 10 W 1027,8 0 0,0
24.01.2018 02:00:00 10,2 4,1 5,7 9,4 4 2 19 10 N 1027,6 0 0,0
24.01.2018 01:00:00 8,6 3,4 5,8 9,5 3 2 14 7 SSE 1027,9 0 0,0
24.01.2018 00:00:00 9,3 3,7 6,7 9,5 10 5 21 11 N 1027,5 0 0,0
23.01.2018 23:00:00 9,5 3,5 8,0 9,6 10 5 20 11 N 1027,3 0 0,0
23.01.2018 22:00:00 9,7 3,4 8,7 9,6 12 7 21 12 N 1026,9 0 0,0
23.01.2018 21:00:00 10,7 3,5 8,9 9,7 13 7 27 14 N 1026,7 0 0,0
23.01.2018 20:00:00 10,7 3,5 7,1 9,7 8 4 16 9 N 1026,9 0 0,0
23.01.2018 19:00:00 10,8 3,3 7,2 9,7 4 2 11 6 N 1026,5 0 0,0
23.01.2018 18:00:00 12,6 3,3 9,3 9,6 2 1 17 9 N 1025,6 0 0,0
23.01.2018 17:00:00 15,8 3,6 13,6 9,6 5 3 27 14 NNE 1025,3 60 0,0
23.01.2018 16:00:00 16,5 3,2 18,2 9,5 17 9 31 17 NNE 1024,6 60 0,0
23.01.2018 15:00:00 17,1 2,7 18,7 9,4 14 8 39 21 N 1024,2 55 0,0
23.01.2018 14:00:00 17,1 1,5 18,4 9,4 17 9 40 21 N 1024,2 60 0,0
23.01.2018 13:00:00 15,7 1,8 16,4 9,3 24 13 41 22 N 1024,8 60 0,0
23.01.2018 12:00:00 14,4 1,6 15,7 9,4 21 11 49 27 N 1025,7 60 0,0
23.01.2018 11:00:00 13,2 1,8 13,8 9,4 19 10 47 26 N 1025,8 60 0,0
23.01.2018 10:00:00 12,0 1,6 9,9 9,5 19 10 47 26 NNW 1025,4 60 0,0
23.01.2018 09:00:00 10,4 1,5 8,0 9,5 15 8 35 19 NNW 1025,0 28 0,0
23.01.2018 08:00:00 9,0 1,9 8,0 9,6 11 6 36 19 NNW 1025,1 0 0,0
23.01.2018 07:00:00 10,1 2,0 7,2 9,7 18 10 33 18 NNW 1024,7 0 0,0
23.01.2018 06:00:00 9,3 2,6 6,7 9,7 6 4 25 13 N 1024,8 0 0,0
23.01.2018 05:00:00 10,8 3,1 9,6 9,8 10 5 32 17 WNW 1024,4 0 0,0
23.01.2018 04:00:00 11,8 3,5 9,7 9,8 13 7 26 14 NW 1024,2 0 0,0
23.01.2018 03:00:00 12,3 3,8 10,8 9,9 7 4 30 16 NW 1023,4 0 0,0
23.01.2018 02:00:00 12,6 4,3 11,1 9,9 7 4 34 18 WNW 1022,7 0 0,0
23.01.2018 01:00:00 13,2 4,6 11,2 10,0 18 10 41 22 NW 1021,4 0 0,0
23.01.2018 00:00:00 12,7 4,9 11,5 10,0 11 6 24 13 NNW 1020,8 0 0,0
22.01.2018 23:00:00 13,0 5,2 11,6 10,0 8 5 26 14 NW 1020,6 0 0,0
22.01.2018 22:00:00 14,3 5,1 11,3 10,0 16 9 31 17 WNW 1020,4 0 0,0
22.01.2018 21:00:00 14,4 5,5 11,5 10,0 2 1 31 17 NNW 1020,6 0 0,0
22.01.2018 20:00:00 15,7 5,3 14,5 10,0 16 9 48 26 WNW 1020,0 0 0,0
22.01.2018 19:00:00 15,8 6,0 11,9 9,9 18 10 42 23 WNW 1019,2 0 0,0
22.01.2018 18:00:00 15,0 9,1 13,7 9,9 2 1 22 12 WSW 1018,6 0 0,0
22.01.2018 17:00:00 15,4 9,1 14,5 9,8 11 6 25 14 W 1018,6 0 0,0
22.01.2018 16:00:00 16,2 7,4 14,2 9,7 7 4 21 11 WSW 1018,6 0 0,0
22.01.2018 15:00:00 15,0 6,5 14,2 9,6 5 3 13 7 S 1018,1 0 0,0
22.01.2018 14:00:00 15,4 6,9 14,9 9,5 9 5 23 12 W 1018,7 0 0,0
22.01.2018 13:00:00 16,5 6,9 16,8 9,3 13 7 41 22 WNW 1019,4 9 0,0
22.01.2018 12:00:00 17,9 7,3 17,1 9,2 19 10 40 22 NW 1020,0 56 0,0
22.01.2018 11:00:00 16,5 6,3 16,3 9,2 18 10 51 28 NW 1020,1 8 0,0
22.01.2018 10:00:00 16,3 6,1 15,5 9,1 19 10 45 25 WNW 1019,5 6 0,0
22.01.2018 09:00:00 16,0 6,4 14,7 9,1 16 9 46 25 WNW 1018,9 19 0,0
22.01.2018 08:00:00 15,6 6,6 14,5 9,1 18 10 49 26 WNW 1018,6 0 0,0
22.01.2018 07:00:00 15,5 6,8 14,5 9,1 21 11 46 25 WNW 1017,6 0 0,0
22.01.2018 06:00:00 15,4 6,4 14,1 9,0 16 9 41 22 NNW 1018,0 0 0,0
22.01.2018 05:00:00 14,9 6,5 13,5 9,0 11 6 29 15 WNW 1018,2 0 0,0
22.01.2018 04:00:00 15,2 6,5 14,1 9,0 19 11 46 25 NW 1018,1 0 0,0
22.01.2018 03:00:00 15,3 6,3 14,1 9,1 24 13 48 26 NNW 1018,1 0 0,0
22.01.2018 02:00:00 15,1 5,9 13,5 9,1 16 8 42 23 NW 1018,4 0 0,0
22.01.2018 01:00:00 14,5 7,1 9,7 9,1 10 5 27 15 WNW 1018,8 0 0,0
22.01.2018 00:00:00 10,6 6,5 7,3 9,2 10 5 16 9 N 1018,9 0 0,0
21.01.2018 23:00:00 10,6 5,6 8,9 9,2 6 4 16 9 NNW 1018,6 0 0,0
21.01.2018 22:00:00 10,6 6,9 6,4 9,2 6 4 21 11 NW 1018,3 0 0,0
21.01.2018 21:00:00 9,7 4,3 8,1 9,3 2 1 19 10 WNW 1018,5 0 0,0
21.01.2018 20:00:00 10,3 4,2 8,7 9,3 9 5 16 8 NNW 1018,6 0 0,0
21.01.2018 19:00:00 10,7 4,2 9,6 9,2 8 4 24 13 N 1018,5 0 0,0
21.01.2018 18:00:00 11,5 4,9 10,4 9,2 8 4 23 13 N 1017,5 0 0,0
21.01.2018 17:00:00 13,4 5,0 12,7 9,1 10 6 29 16 N 1017,1 36 0,0
21.01.2018 16:00:00 15,4 4,7 16,9 9,0 18 10 36 19 NNE 1016,7 60 0,0
21.01.2018 15:00:00 16,4 4,7 19,3 8,9 19 10 37 20 N 1016,6 60 0,0
21.01.2018 14:00:00 16,7 4,0 18,0 8,8 19 10 45 24 NNE 1016,7 60 0,0
21.01.2018 13:00:00 16,4 4,1 16,9 8,7 24 13 46 25 N 1016,8 60 0,0
21.01.2018 12:00:00 15,8 4,8 16,3 8,7 9 5 36 19 N 1017,2 58 0,0
21.01.2018 11:00:00 13,8 4,9 14,3 8,7 17 9 37 20 N 1017,1 60 0,0
21.01.2018 10:00:00 12,2 5,1 10,8 8,7 16 9 43 23 N 1017,1 60 0,0
21.01.2018 09:00:00 10,9 5,4 9,4 8,7 18 10 37 20 NNE 1016,6 26 0,0
21.01.2018 08:00:00 10,4 5,8 9,1 8,7 13 7 34 19 N 1015,7 0 0,0
21.01.2018 07:00:00 10,9 6,0 8,6 8,7 11 6 26 14 NNE 1015,2 0 0,0
21.01.2018 06:00:00 9,7 7,0 8,6 8,7 5 3 16 9 N 1013,7 0 0,0
21.01.2018 05:00:00 9,7 6,4 8,0 8,7 10 5 25 13 E 1012,9 0 0,0
21.01.2018 04:00:00 9,1 7,0 6,8 8,7 5 3 11 6 N 1011,9 0 0,0
21.01.2018 03:00:00 9,2 6,8 7,4 8,6 0 0 8 5 N 1011,6 0 0,0
21.01.2018 02:00:00 10,3 7,4 8,6 8,6 4 2 9 5 NW 1011,1 0 0,0
21.01.2018 01:00:00 9,1 6,7 8,0 8,6 4 2 6 3 E 1010,8 0 0,0
21.01.2018 00:00:00 11,5 7,2 9,7 8,6 3 2 14 8 NNW 1011,1 0 0,0
20.01.2018 23:00:00 10,1 7,2 9,3 8,5 4 2 11 6 WNW 1011,3 0 0,0
20.01.2018 22:00:00 11,8 7,5 10,5 8,5 5 3 13 7 W 1011,1 0 0,0
20.01.2018 21:00:00 11,1 7,6 10,0 8,5 4 2 13 7 N 1011,3 0 0,0
20.01.2018 20:00:00 12,1 7,8 10,7 8,4 6 3 10 5 W 1011,4 0 0,0
20.01.2018 19:00:00 12,0 7,3 10,1 8,3 5 3 12 6 WSW 1011,4 0 0,0
20.01.2018 18:00:00 11,0 6,7 9,9 8,2 0 0 9 5 N 1011,2 0 0,0
20.01.2018 17:00:00 11,7 6,6 11,6 8,1 6 3 11 6 S 1011,5 0 0,0
20.01.2018 16:00:00 11,2 5,9 10,9 8,0 4 2 32 17 SSW 1012,1 0 0,0
20.01.2018 15:00:00 10,5 5,7 10,4 8,0 18 10 33 18 SSW 1012,7 0 0,0
20.01.2018 14:00:00 10,0 4,6 10,2 7,9 11 6 23 12 S 1014,4 0 0,0
20.01.2018 13:00:00 9,5 4,1 9,9 7,9 8 4 15 8 S 1016,2 0 0,0
20.01.2018 12:00:00 8,6 3,0 9,1 7,9 4 2 9 5 SSE 1017,9 0 0,0
20.01.2018 11:00:00 7,6 1,6 8,5 7,9 5 3 9 5 S 1019,1 0 0,0
20.01.2018 10:00:00 7,3 0,9 3,8 8,0 3 2 8 4 W 1019,3 42 0,0
20.01.2018 09:00:00 3,5 0,0 1,3 8,1 6 3 12 6 NNW 1020,0 26 0,0
20.01.2018 08:00:00 2,2 -0,6 0,5 8,2 10 5 13 7 NNW 1020,0 0 0,0
20.01.2018 07:00:00 2,0 -0,6 -1,0 8,3 6 4 11 6 NNW 1020,0 0 0,0
20.01.2018 06:00:00 2,4 -0,2 -0,1 8,4 5 3 13 7 NNW 1020,0 0 0,0
20.01.2018 05:00:00 4,1 0,6 1,8 8,4 5 3 13 7 N 1020,1 0 0,0
20.01.2018 04:00:00 5,5 1,0 3,0 8,5 8 4 13 7 N 1020,3 0 0,0
20.01.2018 03:00:00 7,0 0,6 4,3 8,5 4 2 21 11 N 1020,5 0 0,0
20.01.2018 02:00:00 7,7 2,0 6,0 8,5 6 4 15 8 NW 1020,1 0 0,0
20.01.2018 01:00:00 8,9 2,7 8,0 8,5 8 5 14 8 NNW 1020,0 0 0,0
20.01.2018 00:00:00 9,7 2,5 8,9 8,6 11 6 18 10 NNW 1019,8 0 0,0
19.01.2018 23:00:00 9,9 2,3 8,6 8,6 10 5 19 11 NW 1019,4 0 0,0
19.01.2018 22:00:00 10,7 2,3 9,9 8,6 9 5 29 16 W 1019,0 0 0,0
19.01.2018 21:00:00 10,8 1,9 7,3 8,6 13 7 29 16 WNW 1018,3 0 0,0
19.01.2018 20:00:00 9,1 2,2 4,3 8,6 7 4 20 11 WNW 1018,2 0 0,0
19.01.2018 19:00:00 7,6 2,5 5,4 8,6 5 3 14 7 WNW 1017,4 0 0,0
19.01.2018 18:00:00 10,6 2,7 7,2 8,6 9 5 23 12 WNW 1016,7 1 0,0
19.01.2018 17:00:00 12,3 2,7 11,2 8,5 8 4 29 16 WNW 1016,1 1 0,0
19.01.2018 16:00:00 13,3 2,5 13,0 8,4 13 7 44 24 WNW 1016,0 17 0,0
19.01.2018 15:00:00 15,2 2,7 17,5 8,3 16 9 46 25 WNW 1015,4 60 0,0
19.01.2018 14:00:00 15,3 2,4 16,1 8,2 17 9 44 24 WNW 1015,5 60 0,0
19.01.2018 13:00:00 15,2 3,0 15,3 8,1 18 10 39 21 WNW 1015,7 60 0,0
19.01.2018 12:00:00 13,9 3,1 16,3 8,1 11 6 24 13 NW 1016,7 60 0,0
19.01.2018 11:00:00 12,4 3,6 11,5 8,1 9 5 21 11 N 1017,1 52 0,0
19.01.2018 10:00:00 10,5 5,0 8,2 8,1 8 4 16 9 NNW 1017,0 9 0,0
19.01.2018 09:00:00 8,8 6,2 2,1 8,2 10 5 17 9 NNW 1017,0 7 0,0
19.01.2018 08:00:00 5,2 4,2 3,4 8,3 3 2 12 7 NW 1016,2 0 0,0
19.01.2018 07:00:00 5,7 4,3 3,3 8,3 0 0 14 8 N 1015,9 0 0,0
19.01.2018 06:00:00 5,8 4,9 4,1 8,4 7 4 11 6 W 1015,6 0 0,0
19.01.2018 05:00:00 5,3 4,1 3,1 8,4 6 4 9 5 NNW 1015,9 0 0,0
19.01.2018 04:00:00 5,7 4,3 3,7 8,5 4 2 10 5 NW 1016,4 0 0,0
19.01.2018 03:00:00 5,7 4,3 3,3 8,5 4 2 8 5 NNW 1016,8 0 0,0
19.01.2018 02:00:00 5,5 3,7 3,5 8,6 4 2 6 3 ENE 1016,9 0 0,0
19.01.2018 01:00:00 8,3 3,9 4,8 8,6 5 3 22 12 SSW 1017,1 0 0,0
19.01.2018 00:00:00 8,4 5,1 6,2 8,7 4 2 14 8 WNW 1017,6 0 0,0
18.01.2018 23:00:00 8,4 5,3 4,0 8,7 11 6 16 9 W 1017,5 0 0,0
18.01.2018 22:00:00 7,0 4,0 4,5 8,7 2 1 14 8 SSE 1018,1 0 0,0
18.01.2018 21:00:00 7,6 4,9 3,5 8,8 6 3 10 5 W 1018,4 0 0,0
18.01.2018 20:00:00 9,0 5,2 4,5 8,7 6 3 16 8 W 1018,6 0 0,0
18.01.2018 19:00:00 8,7 3,9 4,8 8,7 2 1 9 5 WNW 1018,5 0 0,0
18.01.2018 18:00:00 10,8 4,5 7,6 8,6 4 2 12 7 W 1018,4 9 0,0
18.01.2018 17:00:00 13,6 4,7 12,8 8,5 11 6 24 13 W 1018,3 60 0,0
18.01.2018 16:00:00 14,7 4,9 16,8 8,4 12 6 25 14 WSW 1018,3 58 0,0
18.01.2018 15:00:00 15,4 4,4 18,4 8,2 10 5 19 10 WSW 1018,7 60 0,0
18.01.2018 14:00:00 14,7 4,9 16,0 8,1 7 4 17 9 S 1019,7 56 0,0
18.01.2018 13:00:00 13,5 4,6 14,6 8,1 6 3 14 8 SSW 1020,9 60 0,0
18.01.2018 12:00:00 10,8 4,5 10,8 8,1 6 4 12 6 SW 1022,4 26 0,0

tt = Température de l'air
td = dewpoint
tt 5cm = Température de l'air 5cm
tt -20cm = Température de l'air -20cm
ff = Vitesse du vent
fx = gusts
dd = Direction du vent
ppp = reduced air pressure
sd = Ensoleillement
rr = Quantités de précipitations

stations d'obs. à proximité